Time;durP1;ratioP1;P1;durP2;ratioP2;P2;SDS_P1;SDS_P2;PMS_P1;PMS_P2;Temp;Humidity;BMP_temperature;BMP_pressure;BME280_temperature;BME280_humidity;BME280_pressure;Samples;Min_cycle;Max_cycle;Signal;HPM_P1;HPM_P2
2023/03/02 00:01:29;;;;;;;5.80;4.30;;;2.80;99.90;;;;;;5034038;28;20307;-60
2023/03/02 00:03:58;;;;;;;10.23;4.60;;;2.80;99.90;;;;;;5036686;28;20193;-61
2023/03/02 00:06:27;;;;;;;4.37;3.97;;;2.80;99.90;;;;;;5036932;28;20550;-61
2023/03/02 00:08:54;;;;;;;5.90;3.90;;;2.80;99.90;;;;;;5043629;28;20254;-61
2023/03/02 00:11:21;;;;;;;9.17;4.37;;;2.70;99.90;;;;;;5032805;28;20263;-60
2023/03/02 00:13:48;;;;;;;5.23;3.40;;;2.80;99.90;;;;;;5033605;28;20208;-63
2023/03/02 00:16:15;;;;;;;5.43;4.10;;;2.80;99.90;;;;;;5036264;28;20205;-61
2023/03/02 00:18:42;;;;;;;5.33;4.07;;;2.80;99.90;;;;;;5033747;28;20558;-61
2023/03/02 00:21:09;;;;;;;6.53;4.07;;;2.80;99.90;;;;;;5039389;28;20207;-61
2023/03/02 00:23:37;;;;;;;6.23;4.33;;;2.80;99.90;;;;;;5040211;28;20731;-62
2023/03/02 00:26:05;;;;;;;6.93;4.37;;;2.80;99.90;;;;;;5038104;28;20203;-62
2023/03/02 00:28:32;;;;;;;7.33;4.10;;;2.80;99.90;;;;;;5039296;28;20586;-61
2023/03/02 00:31:03;;;;;;;6.93;4.70;;;2.60;99.90;;;;;;5037237;28;20251;-61
2023/03/02 00:33:31;;;;;;;7.60;4.57;;;2.50;99.90;;;;;;5044111;28;20196;-61
2023/03/02 00:35:58;;;;;;;5.73;3.97;;;2.60;99.90;;;;;;5034666;28;20244;-60
2023/03/02 00:38:26;;;;;;;8.83;4.83;;;2.60;99.90;;;;;;5038484;28;20219;-61
2023/03/02 00:40:54;;;;;;;8.00;4.33;;;2.50;99.90;;;;;;5031606;28;20203;-62
2023/03/02 00:43:26;;;;;;;8.07;4.80;;;2.50;99.90;;;;;;5029373;28;20305;-63
2023/03/02 00:45:56;;;;;;;7.07;4.07;;;2.40;99.90;;;;;;5027445;28;20296;-62
2023/03/02 00:48:22;;;;;;;8.63;4.90;;;2.50;99.90;;;;;;5032455;28;20242;-61
2023/03/02 00:50:49;;;;;;;6.87;4.57;;;2.50;99.90;;;;;;5033855;28;20651;-61
2023/03/02 00:53:16;;;;;;;6.40;4.40;;;2.50;99.90;;;;;;5033797;28;20620;-61
2023/03/02 00:55:53;;;;;;;5.43;4.17;;;2.50;99.90;;;;;;5029778;28;20196;-61
2023/03/02 00:58:20;;;;;;;7.13;4.43;;;2.60;99.90;;;;;;5035886;28;20200;-62
2023/03/02 01:00:47;;;;;;;6.50;4.30;;;2.50;99.90;;;;;;5034359;28;20291;-62
2023/03/02 01:03:14;;;;;;;5.90;4.73;;;2.60;99.90;;;;;;5031687;28;20204;-62
2023/03/02 01:05:41;;;;;;;7.20;4.47;;;2.70;99.90;;;;;;5030359;28;20578;-61
2023/03/02 01:08:10;;;;;;;7.97;4.67;;;2.60;99.90;;;;;;5031830;28;20675;-61
2023/03/02 01:10:37;;;;;;;10.33;5.20;;;2.40;99.90;;;;;;5039242;28;20204;-61
2023/03/02 01:13:05;;;;;;;8.50;5.00;;;2.40;99.90;;;;;;5041063;28;20267;-62
2023/03/02 01:15:33;;;;;;;6.77;4.50;;;2.40;99.90;;;;;;5039779;28;20659;-61
2023/03/02 01:18:01;;;;;;;6.73;4.40;;;2.30;99.90;;;;;;5038938;28;20201;-61
2023/03/02 01:20:28;;;;;;;11.20;5.50;;;2.30;99.90;;;;;;5040223;28;20254;-61
2023/03/02 01:22:55;;;;;;;7.83;5.10;;;2.20;99.90;;;;;;5041095;28;20291;-61
2023/03/02 01:25:22;;;;;;;7.53;4.90;;;2.20;99.90;;;;;;5034508;28;20819;-61
2023/03/02 01:27:49;;;;;;;10.10;5.90;;;2.30;99.90;;;;;;5033642;28;20351;-61
2023/03/02 01:30:16;;;;;;;9.17;5.00;;;2.40;99.90;;;;;;5042951;28;20206;-61
2023/03/02 01:32:43;;;;;;;8.50;5.37;;;2.50;99.90;;;;;;5034557;28;20604;-61
2023/03/02 01:35:10;;;;;;;9.30;5.03;;;2.30;99.90;;;;;;5039130;28;20645;-60
2023/03/02 01:37:37;;;;;;;10.77;6.43;;;2.20;99.90;;;;;;5039189;28;20720;-61
2023/03/02 01:40:05;;;;;;;10.40;5.97;;;2.10;99.90;;;;;;5036976;28;20203;-62
2023/03/02 01:42:45;;;;;;;11.77;7.20;;;2.10;99.90;;;;;;5039987;28;20208;-60
2023/03/02 01:45:45;;;;;;;12.57;6.97;;;2.10;99.90;;;;;;5045902;28;20754;-61
2023/03/02 01:48:16;;;;;;;13.83;7.60;;;2.10;99.90;;;;;;5045415;28;20310;-61
2023/03/02 01:50:44;;;;;;;12.60;7.60;;;2.00;99.90;;;;;;5038839;28;20208;-60
2023/03/02 01:53:12;;;;;;;13.47;8.57;;;2.00;99.90;;;;;;5040791;28;20352;-60
2023/03/02 01:55:40;;;;;;;16.43;8.87;;;1.90;99.90;;;;;;5036321;28;20291;-60
2023/03/02 01:58:07;;;;;;;17.70;9.90;;;2.00;99.90;;;;;;5032475;28;20613;-61
2023/03/02 02:00:37;;;;;;;15.83;9.50;;;1.90;99.90;;;;;;5024784;28;20225;-62
2023/03/02 02:03:10;;;;;;;19.93;12.20;;;2.00;99.90;;;;;;5035302;28;20203;-61
2023/03/02 02:05:39;;;;;;;19.60;10.67;;;1.90;99.90;;;;;;5035435;28;20204;-62
2023/03/02 02:08:07;;;;;;;21.77;12.07;;;1.90;99.90;;;;;;5031756;28;20216;-61
2023/03/02 02:10:34;;;;;;;24.07;12.57;;;2.00;99.90;;;;;;5032572;28;20218;-62
2023/03/02 02:13:01;;;;;;;26.77;13.70;;;1.90;99.90;;;;;;5032810;28;20464;-61
2023/03/02 02:15:29;;;;;;;22.60;13.23;;;1.90;99.90;;;;;;5038326;28;21530;-62
2023/03/02 02:17:56;;;;;;;22.50;13.43;;;1.80;99.90;;;;;;5038246;28;20254;-61
2023/03/02 02:20:51;;;;;;;27.70;14.67;;;1.90;99.90;;;;;;5038624;28;20204;-61
2023/03/02 02:23:26;;;;;;;24.63;14.40;;;1.90;99.90;;;;;;5035398;28;20711;-60
2023/03/02 02:25:57;;;;;;;31.43;16.90;;;1.80;99.90;;;;;;5038371;28;20509;-60
2023/03/02 02:28:38;;;;;;;26.20;13.97;;;1.70;99.90;;;;;;5037045;28;20217;-60
2023/03/02 02:31:22;;;;;;;25.83;13.70;;;1.80;99.90;;;;;;5037054;28;20236;-63
2023/03/02 02:33:58;;;;;;;22.93;13.57;;;1.80;99.90;;;;;;5038523;28;20203;-62
2023/03/02 02:36:31;;;;;;;26.90;14.73;;;1.80;99.90;;;;;;5033932;28;20712;-61
2023/03/02 02:39:04;;;;;;;27.77;15.37;;;2.00;99.90;;;;;;5037699;28;20246;-61
2023/03/02 02:41:37;;;;;;;27.70;15.63;;;1.80;99.90;;;;;;5037655;28;20215;-60
2023/03/02 02:44:04;;;;;;;28.77;15.70;;;1.80;99.90;;;;;;5029887;28;20648;-60
2023/03/02 02:46:32;;;;;;;27.63;15.27;;;1.90;99.90;;;;;;5030121;28;20200;-65
2023/03/02 02:49:02;;;;;;;29.17;16.20;;;1.80;99.90;;;;;;5038485;28;20220;-61
2023/03/02 02:51:29;;;;;;;30.00;16.77;;;1.80;99.90;;;;;;5031463;28;20196;-60
2023/03/02 02:54:01;;;;;;;32.53;17.47;;;1.80;99.90;;;;;;5031366;28;20670;-61
2023/03/02 02:56:37;;;;;;;31.07;16.40;;;1.70;99.90;;;;;;5031004;28;20216;-61
2023/03/02 02:59:20;;;;;;;34.40;17.20;;;1.80;99.90;;;;;;5030426;28;20253;-61
2023/03/02 03:01:48;;;;;;;31.93;17.07;;;1.70;99.90;;;;;;5033877;28;20207;-61
2023/03/02 03:04:21;;;;;;;31.83;17.13;;;1.70;99.90;;;;;;5025514;28;20212;-60
2023/03/02 03:06:56;;;;;;;35.57;16.17;;;1.80;99.90;;;;;;5031681;28;20304;-61
2023/03/02 03:09:24;;;;;;;32.27;16.73;;;1.70;99.90;;;;;;5026155;28;20754;-61
2023/03/02 03:12:16;;;;;;;28.47;17.17;;;1.70;99.90;;;;;;5031317;28;20242;-61
2023/03/02 03:14:43;;;;;;;38.17;17.77;;;1.70;99.90;;;;;;5026607;28;20200;-60
2023/03/02 03:17:12;;;;;;;32.13;17.67;;;1.70;99.90;;;;;;5029232;28;20294;-60
2023/03/02 03:19:44;;;;;;;37.93;18.33;;;1.60;99.90;;;;;;5028985;28;20208;-60
2023/03/02 03:22:13;;;;;;;36.10;18.23;;;1.70;99.90;;;;;;5027749;28;20243;-60
2023/03/02 03:24:42;;;;;;;30.67;17.67;;;1.70;99.90;;;;;;5028213;28;20240;-61
2023/03/02 03:27:10;;;;;;;31.33;15.43;;;1.70;99.90;;;;;;5031360;28;20222;-62
2023/03/02 03:29:40;;;;;;;32.83;18.07;;;1.60;99.90;;;;;;5031431;28;20244;-61
2023/03/02 03:32:07;;;;;;;31.70;16.33;;;1.50;99.90;;;;;;5030439;28;20216;-61
2023/03/02 03:34:39;;;;;;;32.27;16.53;;;1.50;99.90;;;;;;5028655;28;20262;-60
2023/03/02 03:37:08;;;;;;;30.40;16.43;;;1.50;99.90;;;;;;5029995;28;20242;-61
2023/03/02 03:39:35;;;;;;;34.23;17.83;;;1.40;99.90;;;;;;5045537;28;20302;-61
2023/03/02 03:42:02;;;;;;;35.83;17.67;;;1.50;99.90;;;;;;5032962;28;20217;-60
2023/03/02 03:44:29;;;;;;;35.50;18.93;;;1.40;99.90;;;;;;5031952;28;20203;-60
2023/03/02 03:46:56;;;;;;;33.93;17.97;;;1.40;99.90;;;;;;5030518;28;20211;-62
2023/03/02 03:49:23;;;;;;;34.13;18.07;;;1.40;99.90;;;;;;5029009;28;20271;-61
2023/03/02 03:51:50;;;;;;;34.87;18.00;;;1.40;99.90;;;;;;5030503;28;20290;-60
2023/03/02 03:54:17;;;;;;;36.03;18.50;;;1.40;99.90;;;;;;5030252;28;20291;-60
2023/03/02 03:56:46;;;;;;;32.73;16.83;;;1.40;99.90;;;;;;5036120;28;20601;-60
2023/03/02 03:59:17;;;;;;;35.23;17.50;;;1.40;99.90;;;;;;5036591;28;20215;-61
2023/03/02 04:01:48;;;;;;;33.37;17.17;;;1.40;99.90;;;;;;5039694;28;20297;-62
2023/03/02 04:04:19;;;;;;;35.07;17.53;;;1.40;99.90;;;;;;5039033;28;20633;-60
2023/03/02 04:06:46;;;;;;;32.43;17.00;;;1.40;99.90;;;;;;5037090;28;20212;-61
2023/03/02 04:09:14;;;;;;;32.50;16.53;;;1.40;99.90;;;;;;5030426;28;20339;-60
2023/03/02 04:11:43;;;;;;;33.87;16.63;;;1.40;99.90;;;;;;5038261;28;20718;-60
2023/03/02 04:14:11;;;;;;;33.40;17.00;;;1.40;99.90;;;;;;5036760;28;20209;-60
2023/03/02 04:16:38;;;;;;;33.73;16.70;;;1.40;99.90;;;;;;5036906;28;20231;-61
2023/03/02 04:19:08;;;;;;;31.83;16.80;;;1.30;99.90;;;;;;5035452;28;20224;-61
2023/03/02 04:21:37;;;;;;;30.33;15.47;;;1.40;99.90;;;;;;5038139;28;20209;-61
2023/03/02 04:24:04;;;;;;;33.83;17.50;;;1.40;99.90;;;;;;5037118;28;20295;-61
2023/03/02 04:26:31;;;;;;;33.37;16.03;;;1.30;99.90;;;;;;5040925;28;20232;-61
2023/03/02 04:28:59;;;;;;;32.33;17.27;;;1.30;99.90;;;;;;5033670;28;20227;-60
2023/03/02 04:31:26;;;;;;;33.10;16.47;;;1.30;99.90;;;;;;5038085;28;20227;-61
2023/03/02 04:33:53;;;;;;;33.03;17.80;;;1.30;99.90;;;;;;5033954;28;20762;-60
2023/03/02 04:36:20;;;;;;;33.43;16.90;;;1.30;99.90;;;;;;5035120;28;20231;-60
2023/03/02 04:38:47;;;;;;;36.80;17.50;;;1.30;99.90;;;;;;5035201;28;20204;-60
2023/03/02 04:41:14;;;;;;;33.47;17.17;;;1.10;99.90;;;;;;5033965;28;20723;-61
2023/03/02 04:43:41;;;;;;;34.10;16.83;;;1.20;99.90;;;;;;5038416;28;20259;-60
2023/03/02 04:46:15;;;;;;;35.40;17.70;;;1.20;99.90;;;;;;5044841;28;20610;-60
2023/03/02 04:48:41;;;;;;;31.70;16.10;;;1.10;99.90;;;;;;5041257;28;20223;-60
2023/03/02 04:51:18;;;;;;;33.83;17.20;;;1.10;99.90;;;;;;5038952;28;20203;-60
2023/03/02 04:53:45;;;;;;;32.10;14.20;;;1.10;99.90;;;;;;5039681;28;20243;-61
2023/03/02 04:56:11;;;;;;;30.67;15.63;;;1.10;99.90;;;;;;5039008;28;20204;-61
2023/03/02 04:58:38;;;;;;;32.77;16.20;;;1.10;99.90;;;;;;5038562;28;20673;-62
2023/03/02 05:01:06;;;;;;;33.47;16.17;;;1.10;99.90;;;;;;5042319;28;20297;-60
2023/03/02 05:03:32;;;;;;;32.30;15.17;;;1.20;99.90;;;;;;5035842;28;20246;-60
2023/03/02 05:06:01;;;;;;;32.00;15.70;;;1.10;99.90;;;;;;5038784;28;20235;-60
2023/03/02 05:08:28;;;;;;;32.87;16.30;;;1.10;99.90;;;;;;5038508;28;20722;-60
2023/03/02 05:10:57;;;;;;;38.97;16.43;;;1.10;99.90;;;;;;5038803;28;20200;-60
2023/03/02 05:13:25;;;;;;;30.83;16.17;;;1.10;99.90;;;;;;5041278;28;20452;-60
2023/03/02 05:15:52;;;;;;;34.70;17.40;;;1.10;99.90;;;;;;5039446;28;20231;-60
2023/03/02 05:18:19;;;;;;;31.47;16.77;;;1.30;99.90;;;;;;5038196;28;20210;-60
2023/03/02 05:20:46;;;;;;;33.47;16.90;;;1.20;99.90;;;;;;5039364;28;20295;-62
2023/03/02 05:23:22;;;;;;;35.10;16.93;;;1.20;99.90;;;;;;5040176;28;20563;-60
2023/03/02 05:25:53;;;;;;;33.27;16.90;;;1.10;99.90;;;;;;5038916;28;20212;-60
2023/03/02 05:28:22;;;;;;;32.47;16.30;;;1.00;99.90;;;;;;5036291;28;20286;-62
2023/03/02 05:30:49;;;;;;;30.63;15.03;;;1.00;99.90;;;;;;5034926;28;20243;-59
2023/03/02 05:33:16;;;;;;;32.23;16.87;;;1.10;99.90;;;;;;5036539;28;20200;-59
2023/03/02 05:35:43;;;;;;;31.47;15.03;;;1.10;99.90;;;;;;5038204;28;20207;-59
2023/03/02 05:38:11;;;;;;;35.57;16.80;;;1.20;99.90;;;;;;5038126;28;20728;-59
2023/03/02 05:40:39;;;;;;;33.03;16.83;;;1.00;99.90;;;;;;5033830;28;20761;-59
2023/03/02 05:43:06;;;;;;;29.93;14.37;;;1.00;99.90;;;;;;5038591;28;21535;-59
2023/03/02 05:45:36;;;;;;;31.90;15.83;;;0.80;99.90;;;;;;5037820;28;20620;-60
2023/03/02 05:48:04;;;;;;;31.40;15.70;;;0.90;99.90;;;;;;5035126;28;20704;-61
2023/03/02 05:50:32;;;;;;;33.53;16.53;;;0.90;99.90;;;;;;5031447;28;20285;-60
2023/03/02 05:53:01;;;;;;;32.10;16.40;;;0.80;99.90;;;;;;5035573;28;20204;-59
2023/03/02 05:55:28;;;;;;;32.00;16.07;;;0.80;99.90;;;;;;5032167;28;20287;-61
2023/03/02 05:57:55;;;;;;;30.33;15.27;;;0.90;99.90;;;;;;5027247;28;20295;-61
2023/03/02 06:00:23;;;;;;;32.43;15.80;;;0.80;99.90;;;;;;5025522;28;20293;-60
2023/03/02 06:02:49;;;;;;;31.30;15.63;;;0.70;99.90;;;;;;5029308;28;20239;-60
2023/03/02 06:05:18;;;;;;;34.07;16.80;;;0.70;99.90;;;;;;5029365;28;20747;-63
2023/03/02 06:07:45;;;;;;;33.13;16.67;;;0.80;99.90;;;;;;5029597;28;20292;-59
2023/03/02 06:10:13;;;;;;;34.33;16.57;;;0.70;99.90;;;;;;5029307;28;20234;-59
2023/03/02 06:12:40;;;;;;;37.50;17.50;;;0.80;99.90;;;;;;5031115;28;20777;-60
2023/03/02 06:15:07;;;;;;;34.50;16.47;;;0.80;99.90;;;;;;5031851;28;20208;-60
2023/03/02 06:17:34;;;;;;;32.07;15.80;;;0.70;99.90;;;;;;5038284;28;20292;-60
2023/03/02 06:20:03;;;;;;;31.57;15.60;;;0.70;99.90;;;;;;5029064;28;20218;-60
2023/03/02 06:22:30;;;;;;;33.23;15.70;;;0.70;99.90;;;;;;5033365;28;20297;-62
2023/03/02 06:24:57;;;;;;;30.17;15.20;;;0.60;99.90;;;;;;5030968;28;20215;-61
2023/03/02 06:27:24;;;;;;;35.87;16.40;;;0.50;99.90;;;;;;5031217;28;20230;-60
2023/03/02 06:29:52;;;;;;;31.10;15.00;;;0.60;99.90;;;;;;5026978;28;20300;-63
2023/03/02 06:32:18;;;;;;;30.60;15.73;;;0.70;99.90;;;;;;5031625;28;20216;-60
2023/03/02 06:34:45;;;;;;;32.67;14.57;;;0.70;99.90;;;;;;5034900;28;20656;-60
2023/03/02 06:37:12;;;;;;;29.67;15.50;;;0.70;99.90;;;;;;5034155;28;20319;-60
2023/03/02 06:39:39;;;;;;;33.30;15.73;;;0.70;99.90;;;;;;5032362;28;20233;-60
2023/03/02 06:42:06;;;;;;;29.80;15.67;;;0.60;99.90;;;;;;5033546;28;20222;-61
2023/03/02 06:44:33;;;;;;;34.67;16.33;;;0.70;99.90;;;;;;5037717;28;20616;-60
2023/03/02 06:46:59;;;;;;;34.13;15.47;;;0.60;99.90;;;;;;5038562;28;20304;-60
2023/03/02 06:49:26;;;;;;;33.40;16.73;;;0.60;99.90;;;;;;5035498;28;20313;-61
2023/03/02 06:51:53;;;;;;;34.93;16.07;;;0.60;99.90;;;;;;5040214;28;20645;-65
2023/03/02 06:54:20;;;;;;;30.37;15.67;;;0.70;99.90;;;;;;5039450;28;20200;-61
2023/03/02 06:56:49;;;;;;;31.80;15.73;;;0.60;99.90;;;;;;5035885;28;20290;-60
2023/03/02 06:59:16;;;;;;;34.33;15.77;;;0.70;99.90;;;;;;5034265;28;20246;-62
2023/03/02 07:01:43;;;;;;;34.63;16.50;;;0.80;99.90;;;;;;5020258;28;20258;-61
2023/03/02 07:04:10;;;;;;;29.17;14.53;;;0.80;99.90;;;;;;5027012;28;20663;-62
2023/03/02 07:06:37;;;;;;;36.17;18.13;;;0.80;99.90;;;;;;5030238;28;20254;-60
2023/03/02 07:09:04;;;;;;;32.60;16.30;;;1.00;99.90;;;;;;5028126;28;20310;-61
2023/03/02 07:11:30;;;;;;;32.37;16.93;;;1.10;99.90;;;;;;5031667;28;20224;-61
2023/03/02 07:14:01;;;;;;;34.93;16.10;;;1.00;99.90;;;;;;5031431;28;20211;-63
2023/03/02 07:16:30;;;;;;;33.43;15.83;;;1.10;99.90;;;;;;5031496;28;20660;-60
2023/03/02 07:18:56;;;;;;;30.20;15.80;;;1.10;99.90;;;;;;5028500;28;20342;-60
2023/03/02 07:21:23;;;;;;;31.23;14.60;;;1.20;99.90;;;;;;4675458;28;10000260;-61
2023/03/02 07:23:50;;;;;;;32.00;16.33;;;1.10;99.90;;;;;;5019307;28;20266;-63
2023/03/02 07:26:17;;;;;;;30.33;15.63;;;1.30;99.90;;;;;;5024876;28;20209;-61
2023/03/02 07:28:44;;;;;;;35.40;16.47;;;1.60;99.90;;;;;;5019940;28;20197;-62
2023/03/02 07:31:11;;;;;;;38.37;16.83;;;1.70;99.90;;;;;;5026537;28;20208;-62
2023/03/02 07:33:39;;;;;;;31.83;15.37;;;1.80;99.90;;;;;;5025838;28;20235;-60
2023/03/02 07:36:07;;;;;;;32.97;15.40;;;1.90;99.90;;;;;;5022817;28;20899;-61
2023/03/02 07:38:36;;;;;;;34.20;15.20;;;1.80;99.90;;;;;;5021131;28;21514;-63
2023/03/02 07:41:08;;;;;;;33.13;15.40;;;2.00;99.90;;;;;;5023518;28;20768;-62
2023/03/02 07:43:35;;;;;;;31.63;14.77;;;2.00;99.90;;;;;;5024710;28;21556;-60
2023/03/02 07:46:04;;;;;;;30.57;15.67;;;2.20;99.90;;;;;;5022505;28;20200;-60
2023/03/02 07:48:32;;;;;;;31.47;16.03;;;2.40;99.90;;;;;;5018964;28;20299;-59
2023/03/02 07:50:59;;;;;;;35.77;16.17;;;2.40;99.90;;;;;;5021183;28;20290;-61
2023/03/02 07:53:27;;;;;;;30.53;15.73;;;2.50;99.90;;;;;;5022891;28;20215;-62
2023/03/02 07:55:54;;;;;;;33.37;16.53;;;2.50;99.90;;;;;;5030042;28;20291;-60
2023/03/02 07:58:23;;;;;;;33.07;16.47;;;2.80;99.90;;;;;;5028752;28;20192;-61
2023/03/02 08:00:50;;;;;;;31.80;15.30;;;3.00;99.90;;;;;;5027489;28;20279;-61
2023/03/02 08:03:17;;;;;;;31.87;15.63;;;3.20;99.90;;;;;;5023009;28;20204;-60
2023/03/02 08:05:43;;;;;;;32.03;16.27;;;3.30;99.90;;;;;;5019324;28;20337;-60
2023/03/02 08:08:10;;;;;;;30.40;15.63;;;3.70;99.90;;;;;;5024240;28;20208;-63
2023/03/02 08:10:37;;;;;;;31.23;15.00;;;3.80;99.90;;;;;;5024482;28;20228;-61
2023/03/02 08:13:04;;;;;;;25.97;14.33;;;4.00;99.90;;;;;;5027950;28;20322;-63
2023/03/02 08:15:31;;;;;;;27.80;14.00;;;4.20;99.90;;;;;;5026471;28;20283;-63
2023/03/02 08:17:58;;;;;;;28.07;14.47;;;4.20;99.90;;;;;;5023782;28;20232;-64
2023/03/02 08:20:25;;;;;;;31.30;14.30;;;4.70;99.90;;;;;;5024816;28;20395;-61
2023/03/02 08:22:52;;;;;;;27.30;14.37;;;4.70;99.90;;;;;;5023348;28;20295;-61
2023/03/02 08:25:18;;;;;;;25.63;13.90;;;4.30;99.90;;;;;;5021488;28;20220;-60
2023/03/02 08:27:45;;;;;;;28.97;14.77;;;4.30;99.90;;;;;;5031041;28;20215;-61
2023/03/02 08:30:12;;;;;;;28.70;14.67;;;4.70;99.90;;;;;;5028484;28;20524;-61
2023/03/02 08:32:39;;;;;;;25.40;14.27;;;5.30;99.90;;;;;;5027980;28;21057;-61
2023/03/02 08:35:07;;;;;;;25.87;14.53;;;5.40;99.90;;;;;;5021130;28;20294;-61
2023/03/02 08:37:34;;;;;;;29.37;14.93;;;5.60;99.90;;;;;;5023878;28;20229;-63
2023/03/02 08:40:01;;;;;;;28.57;15.40;;;5.70;99.90;;;;;;5024194;28;20559;-62
2023/03/02 08:42:28;;;;;;;28.43;14.10;;;5.80;99.90;;;;;;5028726;28;20237;-61
2023/03/02 08:44:55;;;;;;;27.30;14.53;;;6.20;99.90;;;;;;5027145;28;20206;-62
2023/03/02 08:47:22;;;;;;;23.40;13.00;;;6.10;99.90;;;;;;5029460;28;20197;-62
2023/03/02 08:49:50;;;;;;;23.87;14.07;;;6.30;99.90;;;;;;5027456;28;20427;-61
2023/03/02 08:52:16;;;;;;;28.90;14.87;;;6.40;99.90;;;;;;5030987;28;20196;-63
2023/03/02 08:54:43;;;;;;;22.80;12.80;;;6.80;99.90;;;;;;5031144;28;20913;-62
2023/03/02 08:57:11;;;;;;;26.07;13.37;;;7.00;99.90;;;;;;5028302;28;20208;-61
2023/03/02 08:59:38;;;;;;;24.53;13.40;;;7.00;99.90;;;;;;5030198;28;20228;-62
2023/03/02 09:02:05;;;;;;;30.23;15.00;;;7.00;99.90;;;;;;5030203;28;22202;-64
2023/03/02 09:04:33;;;;;;;24.27;13.37;;;7.00;99.90;;;;;;5028744;28;20287;-64
2023/03/02 09:06:59;;;;;;;24.00;13.63;;;6.90;99.90;;;;;;5029298;28;20197;-61
2023/03/02 09:09:26;;;;;;;23.17;12.70;;;7.20;99.90;;;;;;5030704;28;20295;-62
2023/03/02 09:11:53;;;;;;;20.77;12.70;;;7.40;99.90;;;;;;5026881;28;20263;-61
2023/03/02 09:14:20;;;;;;;21.30;13.13;;;7.00;99.90;;;;;;5027754;28;20729;-64
2023/03/02 09:16:47;;;;;;;23.03;12.47;;;7.60;99.90;;;;;;5025898;28;20274;-61
2023/03/02 09:19:14;;;;;;;24.97;13.50;;;7.90;99.90;;;;;;5027958;28;20626;-63
2023/03/02 09:21:41;;;;;;;21.97;12.57;;;7.60;99.90;;;;;;5024942;28;20892;-62
2023/03/02 09:24:08;;;;;;;20.27;11.00;;;7.90;99.90;;;;;;5029525;28;20218;-60
2023/03/02 09:26:37;;;;;;;22.20;11.80;;;8.10;99.90;;;;;;5027024;28;20201;-61
2023/03/02 09:29:05;;;;;;;19.73;11.87;;;8.50;99.90;;;;;;5021372;28;20214;-60
2023/03/02 09:31:34;;;;;;;24.97;11.90;;;8.10;99.90;;;;;;5027711;28;20868;-61
2023/03/02 09:34:03;;;;;;;18.00;10.57;;;7.80;99.90;;;;;;5028743;28;20845;-61
2023/03/02 09:36:31;;;;;;;21.77;11.20;;;8.00;99.90;;;;;;5028461;28;20232;-60
2023/03/02 09:38:58;;;;;;;22.60;10.90;;;8.00;99.90;;;;;;5028259;28;20798;-61
2023/03/02 09:41:42;;;;;;;20.33;10.67;;;8.10;99.90;;;;;;5029397;28;20204;-61
2023/03/02 09:44:37;;;;;;;18.83;10.63;;;7.80;99.90;;;;;;5026489;28;20255;-62
2023/03/02 09:47:28;;;;;;;19.63;10.27;;;7.90;99.90;;;;;;5028397;28;20744;-60
2023/03/02 09:50:34;;;;;;;19.77;10.90;;;8.60;99.90;;;;;;5029829;28;20666;-61
2023/03/02 09:53:12;;;;;;;18.87;10.90;;;8.10;99.90;;;;;;5024819;28;21292;-61
2023/03/02 09:55:39;;;;;;;19.13;10.23;;;8.00;99.90;;;;;;5025728;28;20224;-60
2023/03/02 09:58:16;;;;;;;21.63;11.20;;;8.10;99.90;;;;;;5027910;28;20208;-61
2023/03/02 10:00:44;;;;;;;20.53;10.13;;;8.40;99.90;;;;;;5031121;28;20195;-61
2023/03/02 10:03:17;;;;;;;19.23;10.90;;;8.20;99.90;;;;;;5030434;28;20265;-60
2023/03/02 10:05:50;;;;;;;18.40;10.63;;;8.60;99.90;;;;;;5031488;28;20778;-60
2023/03/02 10:08:21;;;;;;;18.53;11.20;;;9.40;99.90;;;;;;5028327;28;20232;-60
2023/03/02 10:10:51;;;;;;;20.37;10.83;;;9.00;99.90;;;;;;5027878;28;20218;-61
2023/03/02 10:13:48;;;;;;;19.47;10.63;;;8.70;99.90;;;;;;5029903;28;20342;-61
2023/03/02 10:16:17;;;;;;;20.83;10.23;;;8.70;99.90;;;;;;5029017;28;20199;-60
2023/03/02 10:18:56;;;;;;;20.53;10.87;;;9.00;99.90;;;;;;5030171;28;20200;-60
2023/03/02 10:21:33;;;;;;;20.43;9.30;;;9.10;99.90;;;;;;5022382;28;20575;-61
2023/03/02 10:24:03;;;;;;;19.20;10.83;;;8.60;99.90;;;;;;5029448;28;20207;-60
2023/03/02 10:26:38;;;;;;;21.23;10.70;;;8.60;99.90;;;;;;5028266;28;20198;-62
2023/03/02 10:29:17;;;;;;;19.30;10.87;;;8.80;99.90;;;;;;5028450;28;20204;-60
2023/03/02 10:31:45;;;;;;;19.07;10.20;;;8.60;99.90;;;;;;5025102;28;20333;-63
2023/03/02 10:34:12;;;;;;;25.07;12.27;;;8.50;99.90;;;;;;5024666;28;20245;-65
2023/03/02 10:36:43;;;;;;;17.83;9.97;;;8.60;99.90;;;;;;5020187;28;20227;-61
2023/03/02 10:39:14;;;;;;;18.50;9.10;;;8.80;99.90;;;;;;5027313;28;20212;-60
2023/03/02 10:41:56;;;;;;;20.87;10.67;;;9.10;99.90;;;;;;5018759;28;20298;-61
2023/03/02 10:44:35;;;;;;;19.13;10.40;;;8.80;99.90;;;;;;5024341;28;20259;-61
2023/03/02 10:47:07;;;;;;;22.60;10.63;;;8.50;99.90;;;;;;5049910;22;20200;-80
2023/03/02 10:49:58;;;;;;;19.17;9.87;;;8.90;99.90;;;;;;4995825;28;20967;-80
2023/03/02 10:52:31;;;;;;;18.87;8.93;;;8.60;99.90;;;;;;5001781;28;20203;-78
2023/03/02 10:55:07;;;;;;;16.77;10.23;;;9.10;99.90;;;;;;5001677;28;20210;-85
2023/03/02 10:57:40;;;;;;;17.03;10.50;;;8.70;99.90;;;;;;5030478;28;20206;-82
2023/03/02 11:00:27;;;;;;;18.33;10.60;;;8.70;99.90;;;;;;5024929;28;20207;-83
2023/03/02 11:03:19;;;;;;;20.03;9.63;;;8.70;99.90;;;;;;5008237;28;20203;-78
2023/03/02 11:05:52;;;;;;;18.57;10.10;;;8.80;99.90;;;;;;5006733;28;21071;-80
2023/03/02 11:08:23;;;;;;;20.93;10.10;;;9.40;99.90;;;;;;5005963;28;20550;-80
2023/03/02 11:11:27;;;;;;;16.40;9.20;;;9.60;99.90;;;;;;5010965;28;20344;-80
2023/03/02 11:13:55;;;;;;;17.97;9.77;;;10.00;99.90;;;;;;5013290;28;20208;-79
2023/03/02 11:21:54;;;;;;;20.30;9.87;;;9.60;99.90;;;;;;4991768;26;20721;-59
2023/03/02 11:24:25;;;;;;;15.93;10.00;;;9.80;99.90;;;;;;5008892;28;20309;-59
2023/03/02 11:27:01;;;;;;;18.17;10.27;;;10.30;99.90;;;;;;4989563;28;20221;-59
2023/03/02 11:29:49;;;;;;;15.97;9.50;;;10.10;99.90;;;;;;5013191;28;20291;-59
2023/03/02 11:32:38;;;;;;;18.30;9.77;;;9.90;99.90;;;;;;5019489;28;20709;-59
2023/03/02 11:35:13;;;;;;;20.53;10.43;;;10.50;99.90;;;;;;5000500;28;20208;-59
2023/03/02 11:37:47;;;;;;;18.23;9.33;;;10.50;99.90;;;;;;5019236;28;20235;-59
2023/03/02 11:40:18;;;;;;;18.93;9.23;;;10.70;99.90;;;;;;5021356;28;20219;-60
2023/03/02 11:42:46;;;;;;;14.40;8.83;;;10.80;99.90;;;;;;5012073;28;20212;-58
2023/03/02 11:45:13;;;;;;;17.47;10.60;;;10.60;99.90;;;;;;4997117;28;20648;-59
2023/03/02 11:47:57;;;;;;;15.00;9.03;;;10.80;99.90;;;;;;5013195;28;20206;-59
2023/03/02 11:50:32;;;;;;;14.30;8.60;;;11.00;99.90;;;;;;5007296;28;20314;-59
2023/03/02 11:53:05;;;;;;;15.60;9.40;;;11.30;99.90;;;;;;5003754;28;20873;-59
2023/03/02 11:55:39;;;;;;;17.67;9.50;;;11.20;99.90;;;;;;5000601;28;20201;-59
2023/03/02 11:58:10;;;;;;;14.57;8.97;;;11.50;99.90;;;;;;5003650;28;20218;-60
2023/03/02 12:00:40;;;;;;;17.30;9.50;;;11.40;99.90;;;;;;5009790;28;20239;-60
2023/03/02 12:03:35;;;;;;;14.83;9.33;;;11.60;99.90;;;;;;5004615;28;20312;-59
2023/03/02 12:06:24;;;;;;;14.07;8.67;;;11.90;99.90;;;;;;5004675;28;20261;-59
2023/03/02 12:08:54;;;;;;;17.17;8.87;;;11.90;99.90;;;;;;4992165;28;20212;-60
2023/03/02 12:11:21;;;;;;;15.80;9.03;;;12.20;99.90;;;;;;5011125;28;20231;-59
2023/03/02 12:13:48;;;;;;;16.60;8.90;;;12.00;99.90;;;;;;4989590;28;20223;-59
2023/03/02 12:16:20;;;;;;;11.87;7.60;;;12.60;99.90;;;;;;4987933;28;20223;-58
2023/03/02 12:18:48;;;;;;;13.60;8.03;;;12.80;99.90;;;;;;4991635;28;20238;-61
2023/03/02 12:21:21;;;;;;;12.97;7.87;;;12.70;99.90;;;;;;4984983;28;20236;-58
2023/03/02 12:23:48;;;;;;;13.17;7.63;;;12.80;99.90;;;;;;4990462;28;20281;-59
2023/03/02 12:26:32;;;;;;;14.50;8.53;;;12.70;99.90;;;;;;4995824;28;20220;-59
2023/03/02 12:29:03;;;;;;;11.50;7.53;;;12.90;99.90;;;;;;5006702;28;20204;-59
2023/03/02 12:31:46;;;;;;;14.50;7.77;;;12.40;99.90;;;;;;5012587;28;20220;-59
2023/03/02 12:34:34;;;;;;;13.07;7.10;;;12.50;99.90;;;;;;5007056;28;20204;-59
2023/03/02 12:37:07;;;;;;;11.30;6.90;;;13.20;99.90;;;;;;5006169;28;20631;-59
2023/03/02 12:40:04;;;;;;;11.23;7.90;;;13.40;99.90;;;;;;4995636;28;21146;-59
2023/03/02 12:42:50;;;;;;;15.37;7.53;;;13.40;99.90;;;;;;4998294;28;20287;-60
2023/03/02 12:45:38;;;;;;;9.07;6.47;;;13.70;99.90;;;;;;4994538;28;20202;-59
2023/03/02 12:48:24;;;;;;;11.00;7.40;;;13.20;99.90;;;;;;5009291;28;20545;-59
2023/03/02 12:50:57;;;;;;;12.43;7.73;;;13.90;99.90;;;;;;4993783;28;21102;-60
2023/03/02 12:53:24;;;;;;;12.97;7.97;;;13.60;99.90;;;;;;5003835;28;20201;-59
2023/03/02 12:55:51;;;;;;;14.67;7.63;;;13.10;99.90;;;;;;4992591;28;20891;-59
2023/03/02 12:58:22;;;;;;;12.43;7.63;;;12.90;99.90;;;;;;5004449;28;20223;-60
2023/03/02 13:00:52;;;;;;;16.17;7.70;;;12.90;99.90;;;;;;5011553;28;20667;-60
2023/03/02 13:03:20;;;;;;;12.20;7.77;;;12.70;99.90;;;;;;4986876;28;20210;-64